createdAt,value
2023-05-17T00:00:22.117Z,8.57
2023-05-17T00:01:24.894Z,8.61
2023-05-17T00:02:27.596Z,8.55
2023-05-17T00:03:30.285Z,8.45
2023-05-17T00:04:33.962Z,8.38
2023-05-17T00:05:36.428Z,8.43
2023-05-17T00:06:38.759Z,8.46
2023-05-17T00:07:41.217Z,8.39
2023-05-17T00:08:43.551Z,8.46
2023-05-17T00:09:45.874Z,8.50
2023-05-17T00:10:48.561Z,8.43
2023-05-17T00:11:51.249Z,8.40
2023-05-17T00:12:53.881Z,8.33
2023-05-17T00:13:56.514Z,8.31
2023-05-17T00:14:59.397Z,8.31
2023-05-17T00:16:02.051Z,8.27
2023-05-17T00:17:04.725Z,8.29
2023-05-17T00:18:07.416Z,8.29
2023-05-17T00:19:10.393Z,8.17
2023-05-17T00:20:13.482Z,8.11
2023-05-17T00:21:16.224Z,8.12
2023-05-17T00:22:18.885Z,8.16
2023-05-17T00:23:21.615Z,8.15
2023-05-17T00:24:24.309Z,8.13
2023-05-17T00:25:27.177Z,8.16
2023-05-17T00:26:30.118Z,8.14
2023-05-17T00:27:32.809Z,8.11
2023-05-17T00:28:35.467Z,8.01
2023-05-17T00:29:38.080Z,8.00
2023-05-17T00:30:40.856Z,8.00
2023-05-17T00:31:43.616Z,7.94
2023-05-17T00:32:48.185Z,7.83
2023-05-17T00:33:50.863Z,7.83
2023-05-17T00:34:53.557Z,7.88
2023-05-17T00:35:56.235Z,7.87
2023-05-17T00:36:58.933Z,7.80
2023-05-17T00:38:01.607Z,7.80
2023-05-17T00:39:04.396Z,7.90
2023-05-17T00:40:08.110Z,7.89
2023-05-17T00:41:10.903Z,7.90
2023-05-17T00:42:13.926Z,7.91
2023-05-17T00:43:16.575Z,7.92
2023-05-17T00:44:19.198Z,7.91
2023-05-17T00:45:21.864Z,7.94
2023-05-17T00:46:24.515Z,7.93
2023-05-17T00:47:27.227Z,7.92
2023-05-17T00:48:31.154Z,7.89
2023-05-17T00:49:34.423Z,7.89
2023-05-17T00:50:37.279Z,7.87
2023-05-17T00:51:40.437Z,7.94
2023-05-17T00:52:43.227Z,7.95
2023-05-17T00:53:46.570Z,7.95
2023-05-17T00:54:49.479Z,7.91
2023-05-17T00:55:52.647Z,7.93
2023-05-17T00:56:57.647Z,7.98
2023-05-17T00:58:00.838Z,8.01
2023-05-17T00:59:07.361Z,7.96
2023-05-17T01:00:10.509Z,7.90
2023-05-17T01:01:13.203Z,7.93
2023-05-17T01:02:16.191Z,7.92
2023-05-17T01:03:19.051Z,7.90
2023-05-17T01:04:21.998Z,7.92
2023-05-17T01:05:24.744Z,7.94
2023-05-17T01:06:33.880Z,7.92
2023-05-17T01:07:36.563Z,7.92
2023-05-17T01:08:39.505Z,7.89
2023-05-17T01:09:42.877Z,7.91
2023-05-17T01:11:06.215Z,7.90
2023-05-17T01:12:37.591Z,7.89
2023-05-17T01:14:10.585Z,7.87
2023-05-17T01:15:23.678Z,7.87
2023-05-17T01:16:40.072Z,7.89
2023-05-17T01:18:11.190Z,7.91
2023-05-17T01:19:42.265Z,7.90
2023-05-17T01:20:46.961Z,7.91
2023-05-17T01:22:05.489Z,7.97
2023-05-17T01:23:42.808Z,7.97
2023-05-17T01:24:51.662Z,7.77
2023-05-17T01:26:15.853Z,7.64
2023-05-17T01:27:20.357Z,7.64
2023-05-17T01:28:25.316Z,7.80
2023-05-17T01:29:30.652Z,7.91
2023-05-17T01:30:35.682Z,7.93
2023-05-17T01:31:39.815Z,7.78
2023-05-17T01:32:43.800Z,7.77
2023-05-17T01:33:46.996Z,7.62
2023-05-17T01:34:49.759Z,7.59
2023-05-17T01:35:52.423Z,7.59
2023-05-17T01:36:55.384Z,7.52
2023-05-17T01:37:58.100Z,7.48
2023-05-17T01:39:02.176Z,7.48
2023-05-17T01:40:06.188Z,7.46
2023-05-17T01:41:18.652Z,7.39
2023-05-17T01:42:35.828Z,7.32
2023-05-17T01:43:59.438Z,7.23
2023-05-17T01:45:49.650Z,7.10
2023-05-17T01:47:14.892Z,6.97
2023-05-17T01:48:32.393Z,7.00
2023-05-17T01:49:40.543Z,7.05
2023-05-17T01:50:46.536Z,7.04
2023-05-17T01:51:54.286Z,7.01
2023-05-17T01:53:04.061Z,6.98
2023-05-17T01:54:12.729Z,6.97
2023-05-17T01:55:44.012Z,6.97
2023-05-17T01:56:54.587Z,6.95
2023-05-17T01:57:58.303Z,6.89
2023-05-17T01:59:00.789Z,6.90
2023-05-17T02:00:06.729Z,6.90
2023-05-17T02:01:10.821Z,6.93
2023-05-17T02:02:14.532Z,6.87
2023-05-17T02:03:20.719Z,6.82
2023-05-17T02:04:23.487Z,6.78
2023-05-17T02:05:26.474Z,6.72
2023-05-17T02:06:29.857Z,6.64
2023-05-17T02:07:32.570Z,6.56
2023-05-17T02:08:35.249Z,6.57
2023-05-17T02:09:37.887Z,6.53
2023-05-17T02:10:41.149Z,6.46
2023-05-17T02:11:43.811Z,6.39
2023-05-17T02:12:46.967Z,6.43
2023-05-17T02:13:49.605Z,6.47
2023-05-17T02:14:52.329Z,6.50
2023-05-17T02:15:55.038Z,6.47
2023-05-17T02:16:57.817Z,6.42
2023-05-17T02:18:00.647Z,6.36
2023-05-17T02:19:03.388Z,6.36
2023-05-17T02:20:11.165Z,6.34
2023-05-17T02:21:13.992Z,6.35
2023-05-17T02:22:16.707Z,6.37
2023-05-17T02:23:19.337Z,6.33
2023-05-17T02:24:21.979Z,6.29
2023-05-17T02:25:24.769Z,6.27
2023-05-17T02:26:28.338Z,6.31
2023-05-17T02:27:31.325Z,6.35
2023-05-17T02:28:34.007Z,6.35
2023-05-17T02:29:36.683Z,6.33
2023-05-17T02:30:42.344Z,6.30
2023-05-17T02:31:45.162Z,6.22
2023-05-17T02:32:47.836Z,6.22
2023-05-17T02:33:50.582Z,6.20
2023-05-17T02:34:53.250Z,6.16
2023-05-17T02:35:55.981Z,6.18
2023-05-17T02:36:58.680Z,6.16
2023-05-17T02:38:01.386Z,6.04
2023-05-17T02:39:04.213Z,6.02
2023-05-17T02:40:10.190Z,5.95
2023-05-17T02:41:12.867Z,5.97
2023-05-17T02:42:16.056Z,5.95
2023-05-17T02:43:18.692Z,5.89
2023-05-17T02:44:21.353Z,5.89
2023-05-17T02:45:24.057Z,5.88
2023-05-17T02:46:26.743Z,5.85
2023-05-17T02:47:29.528Z,5.80
2023-05-17T02:48:32.292Z,5.78
2023-05-17T02:49:35.001Z,5.74
2023-05-17T02:50:38.209Z,5.73
2023-05-17T02:51:41.157Z,5.64
2023-05-17T02:52:43.814Z,5.61
2023-05-17T02:53:46.697Z,5.60
2023-05-17T02:54:49.460Z,5.55
2023-05-17T02:55:52.111Z,5.55
2023-05-17T02:56:54.757Z,5.46
2023-05-17T02:57:57.428Z,5.35
2023-05-17T02:59:01.884Z,5.31
2023-05-17T03:00:06.568Z,5.27
2023-05-17T03:01:10.073Z,5.24
2023-05-17T03:02:12.724Z,5.24
2023-05-17T03:03:15.483Z,5.20
2023-05-17T03:04:20.797Z,5.17
2023-05-17T03:05:23.470Z,5.16
2023-05-17T03:06:26.161Z,5.17
2023-05-17T03:07:28.845Z,5.19
2023-05-17T03:08:32.017Z,5.19
2023-05-17T03:09:34.999Z,5.11
2023-05-17T03:10:37.675Z,5.11
2023-05-17T03:11:40.290Z,5.07
2023-05-17T03:12:42.989Z,5.06
2023-05-17T03:13:46.993Z,5.04
2023-05-17T03:14:49.661Z,5.00
2023-05-17T03:15:52.317Z,4.90
2023-05-17T03:16:54.962Z,4.93
2023-05-17T03:17:57.793Z,4.95
2023-05-17T03:19:00.653Z,4.91
2023-05-17T03:20:03.477Z,4.90
2023-05-17T03:21:11.052Z,4.93
2023-05-17T03:22:13.687Z,4.91
2023-05-17T03:23:16.335Z,4.90
2023-05-17T03:24:19.210Z,4.88
2023-05-17T03:25:21.887Z,4.88
2023-05-17T03:26:25.503Z,4.86
2023-05-17T03:27:28.169Z,4.84
2023-05-17T03:28:30.841Z,4.76
2023-05-17T03:29:33.605Z,4.73
2023-05-17T03:30:36.462Z,4.74
2023-05-17T03:31:39.183Z,4.74
2023-05-17T03:32:41.976Z,4.70
2023-05-17T03:33:44.861Z,4.72
2023-05-17T03:34:47.540Z,4.69
2023-05-17T03:35:50.257Z,4.65
2023-05-17T03:36:52.920Z,4.62
2023-05-17T03:37:55.586Z,4.61
2023-05-17T03:38:58.221Z,4.63
2023-05-17T03:40:00.895Z,4.61
2023-05-17T03:41:04.612Z,4.56
2023-05-17T03:42:07.395Z,4.56
2023-05-17T03:43:10.048Z,4.52
2023-05-17T03:44:12.858Z,4.44
2023-05-17T03:45:17.045Z,4.40
2023-05-17T03:46:19.689Z,4.40
2023-05-17T03:47:25.212Z,4.43
2023-05-17T03:48:28.017Z,4.37
2023-05-17T03:49:30.788Z,4.37
2023-05-17T03:50:33.660Z,4.38
2023-05-17T03:51:36.568Z,4.35
2023-05-17T03:52:39.366Z,4.38
2023-05-17T03:53:43.917Z,4.32
2023-05-17T03:54:48.159Z,4.27
2023-05-17T03:55:51.042Z,4.29
2023-05-17T03:56:53.709Z,4.28
2023-05-17T03:57:56.409Z,4.30
2023-05-17T03:58:59.205Z,4.27
2023-05-17T04:00:01.915Z,4.19
2023-05-17T04:01:05.412Z,4.24
2023-05-17T04:02:08.125Z,4.22
2023-05-17T04:03:10.759Z,4.18
2023-05-17T04:04:13.467Z,4.19
2023-05-17T04:05:16.597Z,4.18
2023-05-17T04:06:19.280Z,4.17
2023-05-17T04:07:21.907Z,4.17
2023-05-17T04:08:24.525Z,4.12
2023-05-17T04:09:27.292Z,4.12
2023-05-17T04:10:30.052Z,4.05
2023-05-17T04:11:33.660Z,4.06
2023-05-17T04:12:36.352Z,4.00
2023-05-17T04:13:39.111Z,3.96
2023-05-17T04:14:41.925Z,3.94
2023-05-17T04:15:44.553Z,3.97
2023-05-17T04:16:47.339Z,3.96
2023-05-17T04:17:50.070Z,3.96
2023-05-17T04:18:54.463Z,3.94
2023-05-17T04:19:57.628Z,3.91
2023-05-17T04:21:00.357Z,3.87
2023-05-17T04:22:03.121Z,3.87
2023-05-17T04:23:05.872Z,3.85
2023-05-17T04:24:09.316Z,3.82
2023-05-17T04:25:12.640Z,3.78
2023-05-17T04:26:15.533Z,3.78
2023-05-17T04:27:18.190Z,3.77
2023-05-17T04:28:22.482Z,3.75
2023-05-17T04:29:25.220Z,3.74
2023-05-17T04:30:28.215Z,3.71
2023-05-17T04:31:32.646Z,3.67
2023-05-17T04:32:36.441Z,3.68
2023-05-17T04:33:38.838Z,3.66
2023-05-17T04:34:41.862Z,3.63
2023-05-17T04:35:44.961Z,3.62
2023-05-17T04:36:47.641Z,3.63
2023-05-17T04:37:50.279Z,3.60
2023-05-17T04:38:53.020Z,3.57
2023-05-17T04:39:56.922Z,3.54
2023-05-17T04:41:06.467Z,3.51
2023-05-17T04:42:09.696Z,3.50
2023-05-17T04:43:12.659Z,3.40
2023-05-17T04:44:15.341Z,3.39
2023-05-17T04:45:18.187Z,3.37
2023-05-17T04:46:20.855Z,3.38
2023-05-17T04:47:23.521Z,3.38
2023-05-17T04:48:28.074Z,3.36
2023-05-17T04:49:30.794Z,3.35
2023-05-17T04:50:33.467Z,3.35
2023-05-17T04:51:36.360Z,3.38
2023-05-17T04:52:39.132Z,3.35
2023-05-17T04:53:41.998Z,3.35
2023-05-17T04:54:44.652Z,3.34
2023-05-17T04:55:48.705Z,3.29
2023-05-17T04:56:51.460Z,3.22
2023-05-17T04:57:54.200Z,3.23
2023-05-17T04:58:56.886Z,3.24
2023-05-17T04:59:59.573Z,3.21
2023-05-17T05:01:02.192Z,3.16
2023-05-17T05:02:05.670Z,3.14
2023-05-17T05:03:08.436Z,3.14
2023-05-17T05:04:11.408Z,3.17
2023-05-17T05:05:14.476Z,3.14
2023-05-17T05:06:17.247Z,3.13
2023-05-17T05:07:19.943Z,3.17
2023-05-17T05:08:22.623Z,3.13
2023-05-17T05:09:25.308Z,3.13
2023-05-17T05:10:30.847Z,3.12
2023-05-17T05:11:33.624Z,3.13
2023-05-17T05:12:36.295Z,3.09
2023-05-17T05:13:39.515Z,3.04
2023-05-17T05:14:42.235Z,3.04
2023-05-17T05:15:45.436Z,3.01
2023-05-17T05:16:48.112Z,3.01
2023-05-17T05:17:51.444Z,2.94
2023-05-17T05:18:54.444Z,2.93
2023-05-17T05:19:57.501Z,2.93
2023-05-17T05:21:00.261Z,2.89
2023-05-17T05:22:03.184Z,2.86
2023-05-17T05:23:06.550Z,2.85
2023-05-17T05:24:09.455Z,2.85
2023-05-17T05:25:12.210Z,2.84
2023-05-17T05:26:14.867Z,2.84
2023-05-17T05:27:17.664Z,2.86
2023-05-17T05:28:20.301Z,2.83
2023-05-17T05:29:22.982Z,2.91
2023-05-17T05:30:25.697Z,2.89
2023-05-17T05:31:28.763Z,2.90
2023-05-17T05:32:31.457Z,2.89
2023-05-17T05:33:34.313Z,2.87
2023-05-17T05:34:37.045Z,2.87
2023-05-17T05:35:39.714Z,2.88
2023-05-17T05:36:42.457Z,2.85
2023-05-17T05:37:45.801Z,2.83
2023-05-17T05:38:49.291Z,2.84
2023-05-17T05:39:52.066Z,2.79
2023-05-17T05:40:54.805Z,2.74
2023-05-17T05:41:57.511Z,2.63
2023-05-17T05:43:00.135Z,2.73
2023-05-17T05:44:02.782Z,2.78
2023-05-17T05:45:05.838Z,2.78
2023-05-17T05:46:08.633Z,2.81
2023-05-17T05:47:11.310Z,2.81
2023-05-17T05:48:14.774Z,2.79
2023-05-17T05:49:17.470Z,2.72
2023-05-17T05:50:20.172Z,2.74
2023-05-17T05:51:22.964Z,2.71
2023-05-17T05:52:25.657Z,2.68
2023-05-17T05:53:28.740Z,2.74
2023-05-17T05:54:31.748Z,2.77
2023-05-17T05:55:34.399Z,2.77
2023-05-17T05:56:37.064Z,2.72
2023-05-17T05:57:39.687Z,2.73
2023-05-17T05:58:42.505Z,2.75
2023-05-17T05:59:45.122Z,2.75
2023-05-17T06:00:48.309Z,2.72
2023-05-17T06:01:52.356Z,2.69
2023-05-17T06:02:55.129Z,2.67
2023-05-17T06:03:58.000Z,2.66
2023-05-17T06:05:00.652Z,2.62
2023-05-17T06:06:03.332Z,2.60
2023-05-17T06:07:06.166Z,2.63
2023-05-17T06:08:08.927Z,2.66
2023-05-17T06:09:12.815Z,2.63
2023-05-17T06:10:15.477Z,2.57
2023-05-17T06:11:20.949Z,2.58
2023-05-17T06:12:23.571Z,2.63
2023-05-17T06:13:27.607Z,2.63
2023-05-17T06:14:30.271Z,2.61
2023-05-17T06:15:33.156Z,2.62
2023-05-17T06:16:35.916Z,2.59
2023-05-17T06:17:38.575Z,2.58
2023-05-17T06:18:41.488Z,2.55
2023-05-17T06:19:44.337Z,2.53
2023-05-17T06:20:47.323Z,2.51
2023-05-17T06:21:50.095Z,2.53
2023-05-17T06:22:52.790Z,2.51
2023-05-17T06:23:55.831Z,2.50
2023-05-17T06:25:01.237Z,2.48
2023-05-17T06:26:03.870Z,2.48
2023-05-17T06:27:07.818Z,2.42
2023-05-17T06:28:10.522Z,2.45
2023-05-17T06:29:13.176Z,2.47
2023-05-17T06:30:15.969Z,2.45
2023-05-17T06:31:19.755Z,2.44
2023-05-17T06:32:23.724Z,2.42
2023-05-17T06:33:26.498Z,2.38
2023-05-17T06:34:29.166Z,2.42
2023-05-17T06:35:40.535Z,2.44
2023-05-17T06:36:50.592Z,2.44
2023-05-17T06:37:53.368Z,2.43
2023-05-17T06:38:56.629Z,2.40
2023-05-17T06:40:16.519Z,2.40
2023-05-17T06:41:19.524Z,2.38
2023-05-17T06:42:27.930Z,2.40
2023-05-17T06:43:30.586Z,2.38
2023-05-17T06:44:33.272Z,2.31
2023-05-17T06:45:35.997Z,2.29
2023-05-17T06:46:38.843Z,2.30
2023-05-17T06:47:41.852Z,2.31
2023-05-17T06:48:44.725Z,2.31
2023-05-17T06:49:47.422Z,2.33
2023-05-17T06:50:50.070Z,2.35
2023-05-17T06:51:52.872Z,2.33
2023-05-17T06:52:55.538Z,2.33
2023-05-17T06:53:58.536Z,2.30
2023-05-17T06:55:01.440Z,2.31
2023-05-17T06:56:04.188Z,2.32
2023-05-17T06:57:07.346Z,2.29
2023-05-17T06:58:10.272Z,2.29
2023-05-17T06:59:13.007Z,2.27
2023-05-17T07:00:16.160Z,2.27
2023-05-17T07:01:19.311Z,2.28
2023-05-17T07:02:21.981Z,2.27
2023-05-17T07:03:24.757Z,2.26
2023-05-17T07:04:28.008Z,2.22
2023-05-17T07:05:31.629Z,2.20
2023-05-17T07:06:34.485Z,2.20
2023-05-17T07:07:37.259Z,2.20
2023-05-17T07:08:41.285Z,2.17
2023-05-17T07:09:44.053Z,2.17
2023-05-17T07:10:46.713Z,2.18
2023-05-17T07:11:49.522Z,2.19
2023-05-17T07:12:54.054Z,2.16
2023-05-17T07:13:56.720Z,2.17
2023-05-17T07:14:59.388Z,2.14
2023-05-17T07:16:02.078Z,2.10
2023-05-17T07:17:04.889Z,2.07
2023-05-17T07:18:07.632Z,2.13
2023-05-17T07:19:10.484Z,2.13
2023-05-17T07:20:13.688Z,2.16
2023-05-17T07:21:16.521Z,2.15
2023-05-17T07:22:20.292Z,2.16
2023-05-17T07:23:25.060Z,2.18
2023-05-17T07:24:27.703Z,2.18
2023-05-17T07:25:30.634Z,2.19
2023-05-17T07:26:33.602Z,2.20
2023-05-17T07:27:36.469Z,2.17
2023-05-17T07:28:39.106Z,2.13
2023-05-17T07:29:42.770Z,2.11
2023-05-17T07:30:45.519Z,2.04
2023-05-17T07:31:48.170Z,2.09
2023-05-17T07:32:52.211Z,2.00
2023-05-17T07:33:54.963Z,1.99
2023-05-17T07:34:57.628Z,1.99
2023-05-17T07:36:00.458Z,1.99
2023-05-17T07:37:03.973Z,1.94
2023-05-17T07:38:09.082Z,1.94
2023-05-17T07:39:11.716Z,1.95
2023-05-17T07:40:14.965Z,1.92
2023-05-17T07:42:51.921Z,1.88
2023-05-17T07:43:54.627Z,1.89
2023-05-17T07:45:00.123Z,1.85
2023-05-17T07:46:02.774Z,1.86
2023-05-17T07:47:05.812Z,1.85
2023-05-17T07:48:08.656Z,1.82
2023-05-17T07:49:11.639Z,1.80
2023-05-17T07:50:14.412Z,1.77
2023-05-17T07:51:17.322Z,1.79
2023-05-17T07:52:19.953Z,1.77
2023-05-17T07:53:22.624Z,1.76
2023-05-17T07:54:28.703Z,1.61
2023-05-17T07:55:31.463Z,1.52
2023-05-17T07:56:37.287Z,1.62
2023-05-17T07:57:39.936Z,1.65
2023-05-17T07:58:42.736Z,1.69
2023-05-17T07:59:45.370Z,1.64
2023-05-17T08:00:48.103Z,1.63
2023-05-17T08:01:51.080Z,1.67
2023-05-17T08:02:53.892Z,1.67
2023-05-17T08:03:56.673Z,1.64
2023-05-17T08:04:59.363Z,1.62
2023-05-17T08:06:02.384Z,1.62
2023-05-17T08:07:05.347Z,1.60
2023-05-17T08:08:08.037Z,1.54
2023-05-17T08:09:11.624Z,1.57
2023-05-17T08:10:14.322Z,1.59
2023-05-17T08:11:17.384Z,1.68
2023-05-17T08:12:20.035Z,1.73
2023-05-17T08:13:24.122Z,1.74
2023-05-17T08:14:27.546Z,1.71
2023-05-17T08:15:30.795Z,1.70
2023-05-17T08:16:33.722Z,1.67
2023-05-17T08:17:36.697Z,1.64
2023-05-17T08:18:39.627Z,1.63
2023-05-17T08:19:42.661Z,1.62
2023-05-17T08:20:47.486Z,1.54
2023-05-17T08:21:50.254Z,1.52
2023-05-17T08:22:55.930Z,1.55
2023-05-17T08:23:58.694Z,1.49
2023-05-17T08:25:01.608Z,1.44
2023-05-17T08:26:04.378Z,1.39
2023-05-17T08:27:07.154Z,1.45
2023-05-17T08:28:09.793Z,1.35
2023-05-17T08:29:12.432Z,1.41
2023-05-17T08:30:27.879Z,1.43
2023-05-17T08:31:32.808Z,1.47
2023-05-17T08:32:35.589Z,1.39
2023-05-17T08:33:38.316Z,1.32
2023-05-17T08:34:41.076Z,1.29
2023-05-17T08:35:43.955Z,1.32
2023-05-17T08:36:46.769Z,1.27
2023-05-17T08:37:49.491Z,1.34
2023-05-17T08:38:53.115Z,1.28
2023-05-17T08:39:55.825Z,1.20
2023-05-17T08:41:00.312Z,1.22
2023-05-17T08:42:03.720Z,1.20
2023-05-17T08:43:08.742Z,1.09
2023-05-17T08:44:12.094Z,1.10
2023-05-17T08:45:15.796Z,1.13
2023-05-17T08:46:24.242Z,1.23
2023-05-17T08:47:30.464Z,1.21
2023-05-17T08:48:37.240Z,1.14
2023-05-17T08:49:41.407Z,1.18
2023-05-17T08:50:45.625Z,1.21
2023-05-17T08:51:52.390Z,1.18
2023-05-17T08:52:57.169Z,1.19
2023-05-17T08:54:00.542Z,1.18
2023-05-17T08:55:23.140Z,1.18
2023-05-17T08:56:26.672Z,1.27
2023-05-17T08:57:31.027Z,1.29
2023-05-17T08:58:48.065Z,1.20
2023-05-17T09:00:01.520Z,1.25
2023-05-17T09:01:04.932Z,1.25
2023-05-17T09:02:07.894Z,1.19
2023-05-17T09:03:14.246Z,1.19
2023-05-17T09:04:19.352Z,1.15
2023-05-17T09:05:22.515Z,1.22
2023-05-17T09:06:25.283Z,1.27
2023-05-17T09:07:27.925Z,1.41
2023-05-17T09:08:33.348Z,1.46
2023-05-17T09:09:36.054Z,1.39
2023-05-17T09:10:38.845Z,1.32
2023-05-17T09:11:41.513Z,1.20
2023-05-17T09:12:45.173Z,1.20
2023-05-17T09:13:47.861Z,1.27
2023-05-17T09:14:50.793Z,1.20
2023-05-17T09:15:54.995Z,1.06
2023-05-17T09:16:58.609Z,0.92
2023-05-17T09:18:01.506Z,1.00
2023-05-17T09:19:06.889Z,1.19
2023-05-17T09:20:11.506Z,1.35
2023-05-17T09:21:14.465Z,1.40
2023-05-17T09:22:20.660Z,1.40
2023-05-17T09:23:23.914Z,1.39
2023-05-17T09:24:30.966Z,1.38
2023-05-17T09:25:34.234Z,1.30
2023-05-17T09:26:44.229Z,1.18
2023-05-17T09:27:46.827Z,1.10
2023-05-17T09:28:49.632Z,1.09
2023-05-17T09:29:55.416Z,1.00
2023-05-17T09:30:58.127Z,1.05
2023-05-17T09:32:17.845Z,1.02
2023-05-17T09:33:22.430Z,0.98
2023-05-17T09:34:26.027Z,1.03
2023-05-17T09:35:30.883Z,1.06
2023-05-17T09:36:34.192Z,1.10
2023-05-17T09:37:39.642Z,1.12
2023-05-17T09:38:42.357Z,1.09
2023-05-17T09:39:46.782Z,1.08
2023-05-17T09:40:49.584Z,1.01
2023-05-17T09:41:57.876Z,0.94
2023-05-17T09:43:01.330Z,1.02
2023-05-17T09:44:09.889Z,1.12
2023-05-17T09:45:15.016Z,1.15
2023-05-17T09:46:17.743Z,1.14
2023-05-17T09:47:24.806Z,1.10
2023-05-17T09:48:31.523Z,1.04
2023-05-17T09:49:34.342Z,0.95
2023-05-17T09:50:36.994Z,1.05
2023-05-17T09:51:48.206Z,1.15
2023-05-17T09:52:51.283Z,1.09
2023-05-17T09:53:55.478Z,1.25
2023-05-17T09:55:01.893Z,1.29
2023-05-17T09:56:06.405Z,1.24
2023-05-17T09:57:10.892Z,1.22
2023-05-17T09:58:13.576Z,1.16
2023-05-17T09:59:17.382Z,1.21
2023-05-17T10:00:21.379Z,1.24
2023-05-17T10:01:29.714Z,1.27
2023-05-17T10:02:34.552Z,1.36
2023-05-17T10:03:38.842Z,1.37
2023-05-17T10:04:42.724Z,1.38
2023-05-17T10:05:46.459Z,1.31
2023-05-17T10:06:52.533Z,1.28
2023-05-17T10:07:57.059Z,1.31
2023-05-17T10:09:01.520Z,1.33
2023-05-17T10:10:05.155Z,1.34
2023-05-17T10:11:10.640Z,1.38
2023-05-17T10:12:17.492Z,1.51
2023-05-17T10:13:26.280Z,1.57
2023-05-17T10:14:34.373Z,1.59
2023-05-17T10:15:39.174Z,1.59
2023-05-17T10:16:43.525Z,1.61
2023-05-17T10:17:52.292Z,1.57
2023-05-17T10:18:55.428Z,1.58
2023-05-17T10:19:59.351Z,1.48
2023-05-17T10:21:02.694Z,1.39
2023-05-17T10:22:21.567Z,1.27
2023-05-17T10:23:28.123Z,1.20
2023-05-17T10:24:32.164Z,1.16
2023-05-17T10:25:36.177Z,1.21
2023-05-17T10:26:39.466Z,1.24
2023-05-17T10:27:42.448Z,1.18
2023-05-17T10:28:46.957Z,1.21
2023-05-17T10:29:50.939Z,1.22
2023-05-17T10:30:55.436Z,1.22
2023-05-17T10:31:59.452Z,1.29
2023-05-17T10:33:03.624Z,1.24
2023-05-17T10:34:09.426Z,1.14
2023-05-17T10:35:15.964Z,1.08
2023-05-17T10:36:19.034Z,1.00
2023-05-17T10:37:23.726Z,1.09
2023-05-17T10:38:38.806Z,1.16
2023-05-17T10:39:47.285Z,1.17
2023-05-17T10:40:52.189Z,1.20
2023-05-17T10:42:13.645Z,1.12
2023-05-17T10:43:18.496Z,1.18
2023-05-17T10:44:22.590Z,1.23
2023-05-17T10:45:26.442Z,1.28
2023-05-17T10:46:30.429Z,1.29
2023-05-17T10:47:34.837Z,1.40
2023-05-17T10:48:38.208Z,1.46
2023-05-17T10:49:42.146Z,1.52
2023-05-17T10:50:54.591Z,1.55
2023-05-17T10:52:13.913Z,1.49
2023-05-17T10:53:16.820Z,1.45
2023-05-17T10:54:19.740Z,1.36
2023-05-17T10:55:29.034Z,1.31
2023-05-17T10:56:33.081Z,1.25
2023-05-17T10:58:45.495Z,1.37
2023-05-17T11:00:02.223Z,1.49
2023-05-17T11:01:07.797Z,1.47
2023-05-17T11:02:11.074Z,1.48
2023-05-17T11:03:17.233Z,1.40
2023-05-17T11:04:34.029Z,1.47
2023-05-17T11:05:36.804Z,1.43
2023-05-17T11:06:41.473Z,1.42
2023-05-17T11:07:44.138Z,1.33
2023-05-17T11:09:08.656Z,1.31
2023-05-17T11:10:13.111Z,1.27
2023-05-17T11:11:19.747Z,1.34
2023-05-17T11:12:31.216Z,1.44
2023-05-17T11:13:34.753Z,1.48
2023-05-17T11:14:46.495Z,1.50
2023-05-17T11:16:05.408Z,1.60
2023-05-17T11:17:15.211Z,1.61
2023-05-17T11:18:29.484Z,1.58
2023-05-17T11:19:34.109Z,1.57
2023-05-17T11:20:37.749Z,1.59
2023-05-17T11:21:50.575Z,1.69
2023-05-17T11:23:00.385Z,1.69
2023-05-17T11:24:05.645Z,1.68
2023-05-17T11:25:11.195Z,1.63
2023-05-17T11:26:19.263Z,1.63
2023-05-17T11:27:27.870Z,1.69
2023-05-17T11:28:36.065Z,1.83
2023-05-17T11:29:42.833Z,1.96
2023-05-17T11:30:51.915Z,1.97
2023-05-17T11:31:54.782Z,2.02
2023-05-17T11:33:11.097Z,2.09
2023-05-17T11:34:20.055Z,2.14
2023-05-17T11:35:27.357Z,2.05
2023-05-17T11:36:30.142Z,2.05
2023-05-17T11:37:33.185Z,2.10
2023-05-17T11:38:36.074Z,2.15
2023-05-17T11:39:58.610Z,2.20
2023-05-17T11:41:26.485Z,2.21
2023-05-17T11:42:30.074Z,2.06
2023-05-17T11:43:34.568Z,2.11
2023-05-17T11:44:38.449Z,2.21
2023-05-17T11:45:58.672Z,2.34
2023-05-17T11:47:11.928Z,2.39
2023-05-17T11:48:15.706Z,2.41
2023-05-17T11:49:34.254Z,2.43
2023-05-17T11:50:39.609Z,2.41
2023-05-17T11:51:43.255Z,2.37
2023-05-17T11:52:45.982Z,2.36
2023-05-17T11:53:49.779Z,2.41
2023-05-17T11:54:52.752Z,2.42
2023-05-17T11:55:56.545Z,2.49
2023-05-17T11:57:00.245Z,2.47
2023-05-17T11:58:04.690Z,2.43
2023-05-17T11:59:07.412Z,2.41
2023-05-17T12:00:10.693Z,2.38
2023-05-17T12:01:13.384Z,2.37
2023-05-17T12:02:32.963Z,2.34
2023-05-17T12:03:36.688Z,2.37
2023-05-17T12:04:40.300Z,2.31
2023-05-17T12:05:43.317Z,2.33
2023-05-17T12:06:46.285Z,2.36
2023-05-17T12:07:53.339Z,2.41
2023-05-17T12:08:56.096Z,2.45
2023-05-17T12:09:58.817Z,2.43
2023-05-17T12:11:02.543Z,2.44
2023-05-17T12:12:05.511Z,2.44
2023-05-17T12:13:08.200Z,2.39
2023-05-17T12:14:11.545Z,2.43
2023-05-17T12:15:19.820Z,2.41
2023-05-17T12:16:24.384Z,2.37
2023-05-17T12:17:37.839Z,2.38
2023-05-17T12:18:51.544Z,2.36
2023-05-17T12:19:55.864Z,2.33
2023-05-17T12:20:59.509Z,2.23
2023-05-17T12:22:15.636Z,2.25
2023-05-17T12:23:18.338Z,2.28
2023-05-17T12:24:21.166Z,2.33
2023-05-17T12:25:26.180Z,2.34
2023-05-17T12:26:28.870Z,2.34
2023-05-17T12:27:31.942Z,2.40
2023-05-17T12:28:36.302Z,2.42
2023-05-17T12:29:40.245Z,2.38
2023-05-17T12:30:43.372Z,2.30
2023-05-17T12:31:50.553Z,2.24
2023-05-17T12:32:53.646Z,2.28
2023-05-17T12:33:59.654Z,2.27
2023-05-17T12:35:02.615Z,2.31
2023-05-17T12:36:06.367Z,2.37
2023-05-17T12:37:11.146Z,2.35
2023-05-17T12:38:14.237Z,2.38
2023-05-17T12:39:18.626Z,2.45
2023-05-17T12:40:21.723Z,2.51
2023-05-17T12:41:29.403Z,2.54
2023-05-17T12:42:33.461Z,2.52
2023-05-17T12:43:38.322Z,2.54
2023-05-17T12:44:41.089Z,2.56
2023-05-17T12:45:43.859Z,2.53
2023-05-17T12:46:50.968Z,2.44
2023-05-17T12:47:53.778Z,2.52
2023-05-17T12:48:56.527Z,2.54
2023-05-17T12:50:03.841Z,2.58
2023-05-17T12:51:09.124Z,2.61
2023-05-17T12:52:12.666Z,2.60
2023-05-17T12:53:15.806Z,2.65
2023-05-17T12:54:29.465Z,2.68
2023-05-17T12:55:38.438Z,2.72
2023-05-17T12:56:50.235Z,2.76
2023-05-17T12:57:54.538Z,2.77
2023-05-17T12:59:15.279Z,2.77
2023-05-17T13:00:18.879Z,2.81
2023-05-17T13:01:21.576Z,2.78
2023-05-17T13:02:24.445Z,2.76
2023-05-17T13:03:28.101Z,2.85
2023-05-17T13:04:32.775Z,2.93
2023-05-17T13:05:36.024Z,3.00
2023-05-17T13:06:51.424Z,3.00
2023-05-17T13:07:54.359Z,2.95
2023-05-17T13:09:03.133Z,2.98
2023-05-17T13:10:06.090Z,2.96
2023-05-17T13:11:10.037Z,2.92
2023-05-17T13:12:12.668Z,2.88
2023-05-17T13:13:21.749Z,2.90
2023-05-17T13:14:46.218Z,2.88
2023-05-17T13:15:49.221Z,2.91
2023-05-17T13:16:52.467Z,2.94
2023-05-17T13:17:55.216Z,2.91
2023-05-17T13:18:58.149Z,2.95
2023-05-17T13:20:01.306Z,2.95
2023-05-17T13:21:04.146Z,2.96
2023-05-17T13:22:07.815Z,3.00
2023-05-17T13:23:11.070Z,2.99
2023-05-17T13:24:13.717Z,3.00
2023-05-17T13:25:16.833Z,3.01
2023-05-17T13:26:20.089Z,3.03
2023-05-17T13:27:22.808Z,3.05
2023-05-17T13:28:25.977Z,3.05
2023-05-17T13:29:38.894Z,3.10
2023-05-17T13:30:46.428Z,3.09
2023-05-17T13:31:49.081Z,3.06
2023-05-17T13:32:51.951Z,3.04
2023-05-17T13:33:54.855Z,3.02
2023-05-17T13:34:57.810Z,3.01
2023-05-17T13:36:00.522Z,3.05
2023-05-17T13:37:03.256Z,3.01
2023-05-17T13:38:05.983Z,2.98
2023-05-17T13:39:08.687Z,2.94
2023-05-17T13:40:11.910Z,2.92
2023-05-17T13:41:14.578Z,2.95
2023-05-17T13:42:18.108Z,2.94
2023-05-17T13:43:20.829Z,2.98
2023-05-17T13:44:23.579Z,2.97
2023-05-17T13:45:26.315Z,3.00
2023-05-17T13:46:29.032Z,3.01
2023-05-17T13:47:32.729Z,3.01
2023-05-17T13:48:35.361Z,3.00
2023-05-17T13:49:37.795Z,2.96
2023-05-17T13:50:41.374Z,2.91
2023-05-17T13:51:44.291Z,2.91
2023-05-17T13:52:46.982Z,2.93
2023-05-17T13:53:50.022Z,2.94
2023-05-17T13:54:52.781Z,2.92
2023-05-17T13:55:55.432Z,2.87
2023-05-17T13:56:58.127Z,2.94
2023-05-17T13:58:00.801Z,2.98
2023-05-17T13:59:03.653Z,3.00
2023-05-17T14:00:07.330Z,3.00
2023-05-17T14:01:10.197Z,2.99
2023-05-17T14:02:13.007Z,2.97
2023-05-17T14:03:16.035Z,2.93
2023-05-17T14:04:18.826Z,2.98
2023-05-17T14:05:21.550Z,3.08
2023-05-17T14:06:24.275Z,3.16
2023-05-17T14:07:27.057Z,3.27
2023-05-17T14:08:29.770Z,3.42
2023-05-17T14:09:34.899Z,3.47
2023-05-17T14:10:37.574Z,3.52
2023-05-17T14:11:40.554Z,3.60
2023-05-17T14:12:44.154Z,3.61
2023-05-17T14:13:46.898Z,3.62
2023-05-17T14:14:49.635Z,3.58
2023-05-17T14:15:52.357Z,3.63
2023-05-17T14:16:55.695Z,3.73
2023-05-17T14:17:58.526Z,3.76
2023-05-17T14:19:04.574Z,3.75
2023-05-17T14:20:08.647Z,3.73
2023-05-17T14:21:11.137Z,3.77
2023-05-17T14:22:14.289Z,3.74
2023-05-17T14:23:17.087Z,3.74